Time;durP1;ratioP1;P1;durP2;ratioP2;P2;SDS_P1;SDS_P2;PMS_P1;PMS_P2;Temp;Humidity;BMP_temperature;BMP_pressure;BME280_temperature;BME280_humidity;BME280_pressure;Samples;Min_cycle;Max_cycle;Signal;HPM_P1;HPM_P2
2022/04/27 00:02:01;;;;;;;11.60;4.10;;;18.80;99.90;;;;;;5021955;28;20238;-81
2022/04/27 00:04:34;;;;;;;7.57;4.00;;;18.90;99.90;;;;;;5032861;28;20637;-82
2022/04/27 00:07:06;;;;;;;6.05;3.65;;;18.90;99.90;;;;;;5030312;28;20186;-82
2022/04/27 00:09:37;;;;;;;8.70;4.05;;;18.90;99.90;;;;;;5034096;28;20582;-82
2022/04/27 00:12:08;;;;;;;6.40;4.45;;;18.90;99.90;;;;;;5032886;28;20214;-78
2022/04/27 00:14:39;;;;;;;7.13;4.38;;;18.90;99.90;;;;;;5033150;28;20205;-81
2022/04/27 00:17:10;;;;;;;8.32;3.70;;;18.90;99.90;;;;;;5033726;28;20194;-82
2022/04/27 00:19:42;;;;;;;9.90;4.40;;;18.90;99.90;;;;;;5022879;28;20234;-79
2022/04/27 00:22:14;;;;;;;8.25;4.30;;;18.90;99.90;;;;;;5029519;28;20202;-78
2022/04/27 00:24:45;;;;;;;7.28;3.92;;;18.90;99.90;;;;;;5032396;28;20194;-78
2022/04/27 00:27:15;;;;;;;7.97;4.60;;;18.90;99.90;;;;;;5031708;28;20198;-82
2022/04/27 00:29:46;;;;;;;13.73;4.57;;;18.90;99.90;;;;;;5030555;28;20190;-78
2022/04/27 00:32:16;;;;;;;8.50;4.60;;;18.90;99.90;;;;;;5031490;28;20708;-77
2022/04/27 00:34:49;;;;;;;9.02;4.35;;;18.80;99.90;;;;;;5030784;28;20205;-80
2022/04/27 00:37:20;;;;;;;8.35;4.07;;;18.80;99.90;;;;;;5032725;28;20202;-80
2022/04/27 00:39:51;;;;;;;6.15;3.85;;;18.80;99.90;;;;;;5032767;28;20640;-82
2022/04/27 00:42:23;;;;;;;10.00;4.40;;;18.70;99.90;;;;;;5029014;28;20221;-84
2022/04/27 00:44:54;;;;;;;9.73;3.90;;;18.70;99.90;;;;;;5030723;28;20191;-86
2022/04/27 00:47:26;;;;;;;10.82;4.38;;;18.70;99.90;;;;;;5028950;28;20186;-88
2022/04/27 00:49:59;;;;;;;12.68;4.80;;;18.70;99.90;;;;;;5032113;28;20194;-87
2022/04/27 00:52:32;;;;;;;13.10;5.18;;;18.70;99.90;;;;;;5028067;28;20997;-87
2022/04/27 00:55:03;;;;;;;10.10;4.80;;;18.70;99.90;;;;;;5030711;28;20260;-86
2022/04/27 00:57:35;;;;;;;9.70;4.88;;;18.70;99.90;;;;;;5018738;28;20244;-86
2022/04/27 01:00:07;;;;;;;11.18;5.40;;;18.70;99.90;;;;;;5030557;28;20256;-86
2022/04/27 01:02:38;;;;;;;8.70;5.10;;;18.70;99.90;;;;;;5032963;28;20237;-86
2022/04/27 01:05:12;;;;;;;8.27;4.50;;;18.70;99.90;;;;;;5032320;28;20187;-85
2022/04/27 01:07:44;;;;;;;10.13;5.25;;;18.70;99.90;;;;;;5031186;28;20618;-87
2022/04/27 01:10:15;;;;;;;9.57;5.20;;;18.70;99.90;;;;;;5030370;28;20205;-88
2022/04/27 01:12:45;;;;;;;9.38;5.88;;;18.70;99.90;;;;;;5032402;28;20234;-86
2022/04/27 01:15:31;;;;;;;9.73;4.70;;;18.70;99.90;;;;;;5032509;28;20191;-87
2022/04/27 01:18:02;;;;;;;9.43;5.68;;;18.70;99.90;;;;;;5031486;28;20202;-86
2022/04/27 01:20:38;;;;;;;12.35;6.68;;;18.70;99.90;;;;;;5034247;28;20209;-86
2022/04/27 01:23:09;;;;;;;11.68;6.05;;;18.80;99.90;;;;;;5037122;28;20602;-86
2022/04/27 01:25:50;;;;;;;11.43;6.13;;;18.80;99.90;;;;;;5034770;28;20209;-85
2022/04/27 01:28:22;;;;;;;10.18;5.65;;;18.90;99.90;;;;;;5034844;28;20231;-86
2022/04/27 01:30:59;;;;;;;10.68;6.60;;;18.90;99.90;;;;;;5035696;28;20182;-85
2022/04/27 01:33:31;;;;;;;13.52;6.20;;;18.90;99.90;;;;;;5033055;28;20182;-85
2022/04/27 01:36:04;;;;;;;11.77;5.70;;;18.90;99.90;;;;;;5034511;28;20208;-84
2022/04/27 01:38:37;;;;;;;8.65;6.05;;;18.90;99.90;;;;;;5033684;28;20198;-86
2022/04/27 01:41:08;;;;;;;11.40;5.63;;;18.90;99.90;;;;;;5036570;28;20205;-84
2022/04/27 01:43:40;;;;;;;10.68;5.65;;;18.90;99.90;;;;;;5034989;28;20684;-84
2022/04/27 01:46:11;;;;;;;9.13;5.70;;;18.90;99.90;;;;;;5035231;28;20229;-85
2022/04/27 01:48:41;;;;;;;11.02;5.18;;;18.90;99.90;;;;;;5030196;28;20204;-83
2022/04/27 01:51:14;;;;;;;8.10;5.47;;;18.90;99.90;;;;;;5030899;28;20222;-84
2022/04/27 01:56:31;;;;;;;10.35;5.53;;;19.00;99.90;;;;;;5033697;28;20201;-84
2022/04/27 01:59:02;;;;;;;11.02;5.63;;;19.00;99.90;;;;;;5031861;28;20236;-83
2022/04/27 02:01:33;;;;;;;10.55;5.22;;;19.00;99.90;;;;;;5033500;28;20202;-83
2022/04/27 02:04:04;;;;;;;7.90;5.35;;;19.00;99.90;;;;;;5035165;28;20193;-84
2022/04/27 02:06:37;;;;;;;10.45;5.40;;;19.00;99.90;;;;;;5033496;28;20195;-83
2022/04/27 02:09:09;;;;;;;7.95;5.60;;;19.10;99.90;;;;;;5030193;28;20289;-84
2022/04/27 02:11:39;;;;;;;12.50;5.70;;;19.10;99.90;;;;;;5029592;28;20218;-84
2022/04/27 02:14:10;;;;;;;9.52;6.00;;;19.10;99.90;;;;;;5035310;28;20240;-84
2022/04/27 02:16:41;;;;;;;11.13;5.97;;;19.10;99.90;;;;;;5032197;28;20205;-88
2022/04/27 02:19:11;;;;;;;9.98;6.05;;;19.10;99.90;;;;;;5034052;28;20553;-83
2022/04/27 02:21:44;;;;;;;10.90;5.85;;;19.10;99.90;;;;;;5025595;28;20202;-84
2022/04/27 02:24:14;;;;;;;9.77;6.25;;;19.10;99.90;;;;;;5034711;28;20201;-83
2022/04/27 02:26:45;;;;;;;9.20;6.20;;;19.10;99.90;;;;;;5035093;28;20194;-85
2022/04/27 02:29:16;;;;;;;11.07;6.50;;;19.20;99.90;;;;;;5033829;28;20218;-84
2022/04/27 02:31:46;;;;;;;12.70;6.40;;;19.20;99.90;;;;;;5031860;28;20297;-82
2022/04/27 02:34:17;;;;;;;10.60;6.03;;;19.20;99.90;;;;;;5033767;28;20199;-81
2022/04/27 02:36:49;;;;;;;11.75;6.30;;;19.20;99.90;;;;;;5034563;28;20187;-83
2022/04/27 02:39:20;;;;;;;9.63;6.00;;;19.20;99.90;;;;;;5033399;28;20580;-86
2022/04/27 02:41:51;;;;;;;10.23;6.10;;;19.20;99.90;;;;;;5033916;28;20199;-82
2022/04/27 02:44:21;;;;;;;9.73;6.13;;;19.20;99.90;;;;;;5033371;28;20198;-85
2022/04/27 02:46:52;;;;;;;9.95;5.57;;;19.20;99.90;;;;;;5032447;28;20203;-82
2022/04/27 02:52:11;;;;;;;10.10;6.35;;;19.10;99.90;;;;;;5031243;28;20221;-83
2022/04/27 02:54:42;;;;;;;8.80;5.15;;;19.20;99.90;;;;;;5033788;28;20245;-82
2022/04/27 02:57:13;;;;;;;8.25;5.60;;;19.20;99.90;;;;;;5028906;28;20729;-82
2022/04/27 02:59:43;;;;;;;10.38;5.53;;;19.20;99.90;;;;;;5034051;28;20191;-81
2022/04/27 03:02:14;;;;;;;9.95;5.70;;;19.20;99.90;;;;;;5032589;28;20252;-81
2022/04/27 03:04:45;;;;;;;8.55;5.55;;;19.20;99.90;;;;;;5034273;28;20182;-82
2022/04/27 03:07:17;;;;;;;6.68;4.50;;;19.20;99.90;;;;;;5033234;28;20264;-82
2022/04/27 03:09:48;;;;;;;8.18;4.65;;;19.20;99.90;;;;;;5033218;28;20194;-81
2022/04/27 03:12:19;;;;;;;10.18;6.13;;;19.20;99.90;;;;;;5033146;28;20272;-83
2022/04/27 03:14:50;;;;;;;11.27;5.28;;;19.20;99.90;;;;;;5033023;28;20198;-82
2022/04/27 03:17:20;;;;;;;7.00;4.97;;;19.20;99.90;;;;;;5032762;28;20218;-82
2022/04/27 03:19:51;;;;;;;8.32;4.85;;;19.20;99.90;;;;;;5031958;28;20202;-82
2022/04/27 03:22:24;;;;;;;8.68;5.30;;;19.20;99.90;;;;;;5032844;28;20649;-82
2022/04/27 03:24:54;;;;;;;9.05;6.03;;;19.20;99.90;;;;;;5030788;28;20615;-81
2022/04/27 03:27:25;;;;;;;9.55;5.38;;;19.20;99.90;;;;;;5028030;28;20623;-83
2022/04/27 03:29:56;;;;;;;7.50;5.72;;;19.20;99.90;;;;;;5032487;28;20195;-82
2022/04/27 03:32:26;;;;;;;11.80;6.30;;;19.20;99.90;;;;;;5033471;28;20218;-81
2022/04/27 03:34:57;;;;;;;8.57;5.75;;;19.20;99.90;;;;;;5030692;28;20201;-86
2022/04/27 03:37:29;;;;;;;8.15;5.60;;;19.20;99.90;;;;;;5032188;28;20341;-86
2022/04/27 03:40:00;;;;;;;9.30;6.20;;;19.20;99.90;;;;;;5028619;28;20658;-83
2022/04/27 03:42:31;;;;;;;9.75;5.78;;;19.20;99.90;;;;;;5031210;28;20201;-82
2022/04/27 03:45:01;;;;;;;7.72;5.32;;;19.20;99.90;;;;;;5029429;28;20570;-82
2022/04/27 03:47:32;;;;;;;8.35;5.30;;;19.20;99.90;;;;;;5028590;28;20241;-82
2022/04/27 03:50:04;;;;;;;7.95;5.20;;;19.20;99.90;;;;;;5028446;28;20654;-85
2022/04/27 03:52:36;;;;;;;8.13;5.35;;;19.20;99.90;;;;;;5032559;28;20300;-83
2022/04/27 03:55:07;;;;;;;9.23;5.63;;;19.20;99.90;;;;;;5032550;28;20205;-83
2022/04/27 03:57:38;;;;;;;8.05;5.03;;;19.20;99.90;;;;;;5032091;28;20194;-83
2022/04/27 04:00:10;;;;;;;7.63;5.18;;;19.20;99.90;;;;;;5033168;28;20230;-82
2022/04/27 04:02:41;;;;;;;8.43;5.43;;;19.20;99.90;;;;;;5033017;28;20712;-84
2022/04/27 04:05:12;;;;;;;13.18;5.97;;;19.20;99.90;;;;;;5032971;28;20252;-83
2022/04/27 04:07:44;;;;;;;9.70;5.88;;;19.30;99.90;;;;;;5033143;28;20186;-83
2022/04/27 04:10:15;;;;;;;9.45;5.63;;;19.20;99.90;;;;;;5033140;28;20190;-86
2022/04/27 04:12:47;;;;;;;10.20;5.93;;;19.30;99.90;;;;;;5028640;28;20268;-84
2022/04/27 04:15:18;;;;;;;10.95;6.25;;;19.30;99.90;;;;;;5032969;28;20194;-84
2022/04/27 04:17:49;;;;;;;10.75;5.68;;;19.30;99.90;;;;;;5031328;28;20704;-85
2022/04/27 04:20:20;;;;;;;9.07;5.80;;;19.20;99.90;;;;;;5033198;28;20641;-83
2022/04/27 04:22:52;;;;;;;10.45;6.10;;;19.30;99.90;;;;;;5025716;28;20190;-84
2022/04/27 04:30:58;;;;;;;10.43;5.68;;;19.20;99.90;;;;;;5032750;28;20240;-83
2022/04/27 04:33:28;;;;;;;11.93;6.82;;;19.30;99.90;;;;;;5029996;28;20210;-83
2022/04/27 04:35:59;;;;;;;16.42;7.90;;;19.30;99.90;;;;;;5029701;28;20240;-85
2022/04/27 04:38:31;;;;;;;9.77;6.72;;;19.30;99.90;;;;;;5032445;28;20187;-86
2022/04/27 04:41:02;;;;;;;12.68;7.40;;;19.30;99.90;;;;;;5028111;28;20190;-84
2022/04/27 04:43:34;;;;;;;10.88;6.75;;;19.30;99.90;;;;;;5032273;28;20190;-84
2022/04/27 04:46:05;;;;;;;14.65;7.00;;;19.30;99.90;;;;;;5025830;28;20202;-84
2022/04/27 04:48:35;;;;;;;11.75;7.82;;;19.30;99.90;;;;;;5032430;28;20233;-83
2022/04/27 04:51:06;;;;;;;11.85;7.22;;;19.30;99.90;;;;;;5032480;28;20249;-83
2022/04/27 04:53:38;;;;;;;12.02;6.68;;;19.30;99.90;;;;;;5032034;28;20241;-84
2022/04/27 04:56:12;;;;;;;11.80;6.55;;;19.30;99.90;;;;;;5036601;28;20233;-84
2022/04/27 04:58:42;;;;;;;11.90;7.43;;;19.30;99.90;;;;;;5035996;28;20225;-84
2022/04/27 05:01:13;;;;;;;18.35;7.93;;;19.30;99.90;;;;;;5035591;28;20190;-87
2022/04/27 05:03:44;;;;;;;12.65;7.82;;;19.30;99.90;;;;;;5033548;28;20665;-85
2022/04/27 05:06:14;;;;;;;13.27;7.25;;;19.30;99.90;;;;;;5036543;28;20191;-86
2022/04/27 05:08:47;;;;;;;12.40;7.07;;;19.30;99.90;;;;;;5036158;28;20195;-83
2022/04/27 05:11:18;;;;;;;12.52;7.00;;;19.30;99.90;;;;;;5036174;28;20192;-84
2022/04/27 05:13:48;;;;;;;14.07;8.02;;;19.30;99.90;;;;;;5036303;28;20214;-85
2022/04/27 05:16:19;;;;;;;12.40;7.13;;;19.30;99.90;;;;;;5036155;28;20194;-84
2022/04/27 05:18:50;;;;;;;10.63;6.65;;;19.30;99.90;;;;;;5033199;28;20198;-86
2022/04/27 05:21:20;;;;;;;15.13;7.55;;;19.30;99.90;;;;;;5035925;28;20198;-84
2022/04/27 05:23:53;;;;;;;12.32;7.13;;;19.30;99.90;;;;;;5034901;28;20642;-87
2022/04/27 05:26:23;;;;;;;12.48;7.25;;;19.30;99.90;;;;;;5036218;28;20236;-85
2022/04/27 05:31:59;;;;;;;11.40;6.72;;;19.20;99.90;;;;;;5035507;28;20209;-87
2022/04/27 05:34:33;;;;;;;12.40;8.43;;;19.20;99.90;;;;;;5025598;28;20222;-86
2022/04/27 05:37:03;;;;;;;12.60;7.18;;;19.20;99.90;;;;;;5031455;28;20198;-86
2022/04/27 05:39:36;;;;;;;13.27;7.75;;;19.20;99.90;;;;;;5040067;28;20209;-88
2022/04/27 05:42:07;;;;;;;15.55;8.25;;;19.20;99.90;;;;;;5041587;28;20198;-86
2022/04/27 05:44:37;;;;;;;12.20;8.10;;;19.20;99.90;;;;;;5037419;28;20209;-86
2022/04/27 05:47:08;;;;;;;11.65;7.82;;;19.20;99.90;;;;;;5036232;28;20229;-85
2022/04/27 05:49:39;;;;;;;15.20;7.63;;;19.20;99.90;;;;;;5036710;28;20191;-86
2022/04/27 05:52:10;;;;;;;13.57;8.52;;;19.20;99.90;;;;;;5034588;28;20198;-86
2022/04/27 05:54:42;;;;;;;13.52;8.98;;;19.20;99.90;;;;;;5035481;28;20202;-86
2022/04/27 05:57:13;;;;;;;13.43;8.77;;;19.20;99.90;;;;;;5035733;28;20607;-87
2022/04/27 05:59:44;;;;;;;13.70;8.48;;;19.20;99.90;;;;;;5035796;28;20186;-87
2022/04/27 06:02:15;;;;;;;11.98;8.13;;;19.20;99.90;;;;;;5036291;28;20286;-86
2022/04/27 06:04:46;;;;;;;12.57;7.78;;;19.10;99.90;;;;;;5035914;28;20270;-86
2022/04/27 06:07:17;;;;;;;13.88;8.18;;;19.20;99.90;;;;;;5035568;28;20198;-86
2022/04/27 06:09:49;;;;;;;13.90;7.95;;;19.10;99.90;;;;;;5035863;28;20206;-86
2022/04/27 06:12:20;;;;;;;12.57;7.18;;;19.10;99.90;;;;;;5034260;28;20205;-85
2022/04/27 06:14:50;;;;;;;13.77;7.80;;;19.20;99.90;;;;;;5035807;28;20701;-85
2022/04/27 06:17:21;;;;;;;13.18;7.78;;;19.20;99.90;;;;;;5035603;28;20198;-85
2022/04/27 06:19:52;;;;;;;11.50;7.80;;;19.20;99.90;;;;;;5035100;28;20664;-85
2022/04/27 06:22:23;;;;;;;13.35;7.53;;;19.20;99.90;;;;;;5035345;28;20248;-86
2022/04/27 06:24:56;;;;;;;10.10;7.22;;;19.10;99.90;;;;;;5035751;28;20203;-85
2022/04/27 06:27:26;;;;;;;14.70;8.52;;;19.10;99.90;;;;;;5035087;28;20581;-85
2022/04/27 06:29:57;;;;;;;14.07;7.50;;;19.20;99.90;;;;;;5031138;28;20302;-85
2022/04/27 06:32:28;;;;;;;18.23;8.45;;;19.10;99.90;;;;;;5035050;28;20187;-86
2022/04/27 06:34:58;;;;;;;15.68;9.40;;;19.10;99.90;;;;;;5035372;28;20634;-85
2022/04/27 06:37:29;;;;;;;14.48;8.57;;;19.10;99.90;;;;;;5035593;28;20244;-85
2022/04/27 06:40:01;;;;;;;16.75;9.80;;;19.10;99.90;;;;;;5035640;28;20309;-85
2022/04/27 06:42:32;;;;;;;15.10;9.73;;;19.10;99.90;;;;;;5035384;28;20245;-86
2022/04/27 06:45:04;;;;;;;18.88;10.15;;;19.10;99.90;;;;;;5033011;28;20198;-85
2022/04/27 06:47:34;;;;;;;12.77;9.10;;;19.00;99.90;;;;;;5034523;28;20256;-84
2022/04/27 06:50:06;;;;;;;14.57;9.18;;;19.00;99.90;;;;;;5033969;28;20606;-84
2022/04/27 06:52:43;;;;;;;14.88;8.98;;;19.00;99.90;;;;;;5029647;28;20273;-85
2022/04/27 06:55:16;;;;;;;13.05;8.30;;;18.90;99.90;;;;;;5034249;28;20229;-85
2022/04/27 06:57:47;;;;;;;17.38;9.43;;;18.90;99.90;;;;;;5034278;28;20194;-85
2022/04/27 07:00:18;;;;;;;12.95;8.95;;;18.90;99.90;;;;;;5031187;28;20281;-85
2022/04/27 07:02:48;;;;;;;14.88;9.05;;;18.90;99.90;;;;;;5030803;28;20194;-85
2022/04/27 07:05:20;;;;;;;13.02;8.35;;;18.90;99.90;;;;;;5027285;28;20205;-85
2022/04/27 07:07:51;;;;;;;14.70;8.93;;;18.90;99.90;;;;;;5035008;28;20191;-84
2022/04/27 07:10:24;;;;;;;14.93;8.95;;;18.80;99.90;;;;;;5034949;28;20252;-84
2022/04/27 07:12:54;;;;;;;14.30;8.48;;;18.80;99.90;;;;;;5032386;28;20225;-84
2022/04/27 07:15:25;;;;;;;14.63;8.48;;;18.80;99.90;;;;;;5032858;28;20260;-84
2022/04/27 07:17:55;;;;;;;13.95;8.23;;;18.80;99.90;;;;;;5031872;28;20252;-83
2022/04/27 07:20:26;;;;;;;11.75;8.52;;;18.80;99.90;;;;;;5031198;28;20198;-85
2022/04/27 07:22:57;;;;;;;14.77;8.90;;;18.70;99.90;;;;;;5033980;28;20191;-83
2022/04/27 07:25:29;;;;;;;12.13;7.75;;;18.80;99.90;;;;;;5034348;28;20190;-84
2022/04/27 07:28:00;;;;;;;13.98;8.02;;;18.70;99.90;;;;;;5034099;28;20218;-85
2022/04/27 07:30:30;;;;;;;11.32;7.35;;;18.70;99.90;;;;;;5033738;28;20186;-85
2022/04/27 07:33:01;;;;;;;10.45;7.25;;;18.60;99.90;;;;;;5034150;28;20194;-86
2022/04/27 07:35:32;;;;;;;12.90;7.50;;;18.60;99.90;;;;;;5033063;28;20240;-86
2022/04/27 07:38:02;;;;;;;8.20;6.18;;;18.60;99.90;;;;;;5032199;28;20206;-84
2022/04/27 07:40:35;;;;;;;10.55;7.30;;;18.60;99.90;;;;;;5030584;28;20697;-83
2022/04/27 07:43:05;;;;;;;10.57;6.50;;;18.60;99.90;;;;;;5030791;28;20244;-85
2022/04/27 07:45:36;;;;;;;14.40;6.97;;;18.60;99.90;;;;;;5034233;28;20634;-85
2022/04/27 07:48:07;;;;;;;10.25;6.18;;;18.60;99.90;;;;;;5034462;28;20191;-85
2022/04/27 07:50:37;;;;;;;10.80;6.43;;;18.60;99.90;;;;;;5032109;28;20205;-83
2022/04/27 07:53:08;;;;;;;10.23;6.63;;;18.60;99.90;;;;;;5029484;28;20300;-84
2022/04/27 07:55:41;;;;;;;13.00;7.32;;;18.50;99.90;;;;;;5033847;28;20248;-84
2022/04/27 07:58:11;;;;;;;10.23;6.55;;;18.50;99.90;;;;;;5034141;28;20194;-84
2022/04/27 08:00:42;;;;;;;8.77;6.65;;;18.50;99.90;;;;;;5033653;28;20599;-84
2022/04/27 08:03:13;;;;;;;15.68;7.43;;;18.50;99.90;;;;;;5034064;28;20194;-85
2022/04/27 08:05:43;;;;;;;12.35;6.70;;;18.50;99.90;;;;;;5033962;28;20700;-84
2022/04/27 08:08:14;;;;;;;9.80;6.63;;;18.50;99.90;;;;;;5033744;28;20194;-83
2022/04/27 08:10:46;;;;;;;12.23;7.82;;;18.40;99.90;;;;;;5033209;28;20248;-86
2022/04/27 08:13:17;;;;;;;11.20;7.38;;;18.50;99.90;;;;;;5033886;28;20214;-85
2022/04/27 08:15:49;;;;;;;9.68;7.05;;;18.40;99.90;;;;;;5033617;28;20226;-85
2022/04/27 08:18:20;;;;;;;12.10;7.55;;;18.50;99.90;;;;;;5033766;28;20558;-84
2022/04/27 08:23:40;;;;;;;12.65;8.10;;;18.40;99.90;;;;;;5031455;28;20209;-84
2022/04/27 08:26:13;;;;;;;12.40;8.55;;;18.40;99.90;;;;;;5033359;28;20289;-84
2022/04/27 08:28:45;;;;;;;11.63;7.80;;;18.40;99.90;;;;;;5032640;28;20218;-85
2022/04/27 08:31:17;;;;;;;11.88;7.60;;;18.40;99.90;;;;;;5021961;28;20194;-83
2022/04/27 08:33:48;;;;;;;13.70;8.43;;;18.40;99.90;;;;;;5032632;28;20708;-84
2022/04/27 08:36:18;;;;;;;13.60;8.63;;;18.40;99.90;;;;;;5033585;28;20198;-83
2022/04/27 08:38:51;;;;;;;12.55;8.20;;;18.40;99.90;;;;;;5033248;28;20595;-83
2022/04/27 08:41:23;;;;;;;15.45;9.25;;;18.40;99.90;;;;;;5031927;28;20680;-84
2022/04/27 08:43:54;;;;;;;12.80;7.85;;;18.40;99.90;;;;;;5031874;28;20202;-83
2022/04/27 08:46:26;;;;;;;14.10;8.02;;;18.40;99.90;;;;;;5032939;28;20601;-84
2022/04/27 08:48:57;;;;;;;13.45;7.50;;;18.40;99.90;;;;;;5032816;28;20200;-84
2022/04/27 08:51:30;;;;;;;11.18;7.07;;;18.40;99.90;;;;;;5029532;28;20237;-83
2022/04/27 08:54:01;;;;;;;10.25;7.10;;;18.50;99.90;;;;;;5016773;28;20230;-83
2022/04/27 08:56:36;;;;;;;10.30;7.38;;;18.40;99.90;;;;;;5033206;28;20248;-83
2022/04/27 08:59:08;;;;;;;12.10;7.38;;;18.50;99.90;;;;;;5032732;28;20239;-84
2022/04/27 09:01:39;;;;;;;9.63;7.10;;;18.50;99.90;;;;;;5031823;28;20202;-84
2022/04/27 09:04:16;;;;;;;13.30;8.40;;;18.50;99.90;;;;;;5026380;28;20206;-84
2022/04/27 09:06:49;;;;;;;10.60;8.05;;;18.50;99.90;;;;;;5032029;28;20190;-83
2022/04/27 09:09:36;;;;;;;14.57;8.40;;;18.50;99.90;;;;;;5029862;28;20198;-84
2022/04/27 09:12:18;;;;;;;12.57;7.70;;;18.50;99.90;;;;;;5031911;28;20615;-84
2022/04/27 09:14:49;;;;;;;14.20;8.57;;;18.40;99.90;;;;;;5030339;28;20213;-83
2022/04/27 09:23:06;;;;;;;13.05;8.52;;;18.40;99.90;;;;;;5031735;28;20194;-83
2022/04/27 09:25:38;;;;;;;13.15;8.13;;;18.40;99.90;;;;;;5032172;28;20676;-83
2022/04/27 09:28:11;;;;;;;12.68;8.48;;;18.40;99.90;;;;;;5032051;28;20225;-83
2022/04/27 09:30:41;;;;;;;12.80;8.55;;;18.40;99.90;;;;;;5031516;28;20206;-84
2022/04/27 09:33:12;;;;;;;16.63;9.43;;;18.40;99.90;;;;;;5044810;28;20198;-83
2022/04/27 09:35:42;;;;;;;16.30;9.40;;;18.40;99.90;;;;;;5046162;28;20240;-83
2022/04/27 09:38:17;;;;;;;14.98;8.52;;;18.30;99.90;;;;;;5029946;28;20244;-84
2022/04/27 09:40:50;;;;;;;14.05;8.90;;;18.40;99.90;;;;;;5032764;28;20205;-84
2022/04/27 09:43:43;;;;;;;12.63;8.32;;;18.30;99.90;;;;;;5034330;28;20198;-84
2022/04/27 09:46:22;;;;;;;14.75;8.93;;;18.30;99.90;;;;;;5034808;28;20229;-83
2022/04/27 09:49:12;;;;;;;12.57;8.40;;;18.30;99.90;;;;;;5035229;28;20236;-83
2022/04/27 09:51:50;;;;;;;11.45;8.05;;;18.40;99.90;;;;;;5033681;28;20198;-82
2022/04/27 09:54:25;;;;;;;15.18;9.02;;;18.40;99.90;;;;;;5035616;28;20288;-83
2022/04/27 09:56:57;;;;;;;14.73;9.10;;;18.40;99.90;;;;;;5036291;28;20244;-82
2022/04/27 09:59:31;;;;;;;14.20;8.40;;;18.40;99.90;;;;;;5035092;28;20205;-83
2022/04/27 10:02:03;;;;;;;16.60;9.60;;;18.30;99.90;;;;;;5035230;28;20281;-82
2022/04/27 10:04:34;;;;;;;18.95;9.30;;;18.40;99.90;;;;;;5035031;28;20277;-83
2022/04/27 10:07:07;;;;;;;14.90;9.32;;;18.40;99.90;;;;;;5034388;28;20249;-83
2022/04/27 10:09:37;;;;;;;15.77;9.80;;;18.40;99.90;;;;;;5036078;28;20536;-83
2022/04/27 10:12:11;;;;;;;14.43;9.00;;;18.30;99.90;;;;;;5034819;28;20198;-83
2022/04/27 10:14:43;;;;;;;16.23;9.82;;;18.40;99.90;;;;;;5035761;28;20237;-83
2022/04/27 10:17:15;;;;;;;14.57;9.20;;;18.30;99.90;;;;;;5034607;28;20194;-82
2022/04/27 10:19:49;;;;;;;12.00;8.40;;;18.40;99.90;;;;;;5035590;28;20610;-83
2022/04/27 10:22:31;;;;;;;11.93;8.20;;;18.30;99.90;;;;;;5035563;28;20601;-83
2022/04/27 10:25:09;;;;;;;13.18;8.82;;;18.30;99.90;;;;;;5033904;28;20233;-83
2022/04/27 10:27:40;;;;;;;13.30;8.80;;;18.30;99.90;;;;;;5034321;28;20249;-83
2022/04/27 10:30:14;;;;;;;15.73;9.93;;;18.30;99.90;;;;;;5032362;28;20703;-83
2022/04/27 10:32:46;;;;;;;13.25;8.77;;;18.30;99.90;;;;;;5033530;28;20198;-83
2022/04/27 10:35:29;;;;;;;16.35;9.30;;;18.30;99.90;;;;;;5034142;28;20260;-83
2022/04/27 10:38:02;;;;;;;14.93;9.15;;;18.30;99.90;;;;;;5015781;28;20206;-82
2022/04/27 10:40:36;;;;;;;15.38;9.38;;;18.30;99.90;;;;;;5015660;28;20537;-82
2022/04/27 10:43:21;;;;;;;17.02;9.90;;;18.30;99.90;;;;;;5029926;28;20195;-83
2022/04/27 10:45:54;;;;;;;12.68;8.95;;;18.30;99.90;;;;;;5034043;28;20569;-82
2022/04/27 10:48:27;;;;;;;15.55;9.63;;;18.30;99.90;;;;;;5035296;28;20240;-82
2022/04/27 10:51:01;;;;;;;15.23;10.50;;;18.30;99.90;;;;;;5032869;28;20244;-82
2022/04/27 10:53:33;;;;;;;21.40;11.63;;;18.30;99.90;;;;;;5034339;28;20238;-82
2022/04/27 10:56:03;;;;;;;14.95;10.57;;;18.30;99.90;;;;;;5034901;28;20214;-82
2022/04/27 10:58:42;;;;;;;16.23;10.90;;;18.40;99.90;;;;;;5033178;28;20198;-83
2022/04/27 11:01:27;;;;;;;17.58;10.43;;;18.40;99.90;;;;;;5031752;28;20213;-82
2022/04/27 11:04:03;;;;;;;15.15;9.95;;;18.40;99.90;;;;;;5032787;28;20270;-83
2022/04/27 11:07:07;;;;;;;16.67;11.07;;;18.30;99.90;;;;;;5031585;28;20193;-83
2022/04/27 11:10:07;;;;;;;17.13;10.85;;;18.40;99.90;;;;;;5033634;28;20194;-83
2022/04/27 11:12:39;;;;;;;17.08;10.32;;;18.40;99.90;;;;;;5031137;28;20256;-82
2022/04/27 11:15:11;;;;;;;20.73;11.18;;;18.40;99.90;;;;;;5030212;28;20260;-83
2022/04/27 11:17:44;;;;;;;20.45;10.43;;;18.50;99.90;;;;;;5032673;28;20281;-82
2022/04/27 11:20:30;;;;;;;18.88;11.52;;;18.40;99.90;;;;;;5027820;28;20602;-83
2022/04/27 11:23:03;;;;;;;16.33;9.90;;;18.40;99.90;;;;;;5028597;28;20195;-82
2022/04/27 11:25:35;;;;;;;16.80;11.07;;;18.40;99.90;;;;;;5031521;28;20190;-83
2022/04/27 11:28:07;;;;;;;19.77;11.18;;;18.40;99.90;;;;;;5031902;28;20220;-83
2022/04/27 11:30:39;;;;;;;21.27;11.15;;;18.40;99.90;;;;;;5033636;28;20222;-82
2022/04/27 11:33:11;;;;;;;15.35;9.60;;;18.40;99.90;;;;;;5027738;28;20669;-83
2022/04/27 11:35:45;;;;;;;17.48;10.73;;;18.40;99.90;;;;;;5033537;28;21000;-83
2022/04/27 11:38:21;;;;;;;16.38;9.57;;;18.40;99.90;;;;;;5032150;28;20784;-83
2022/04/27 11:40:52;;;;;;;16.67;10.88;;;18.40;99.90;;;;;;5031643;28;20198;-83
2022/04/27 11:43:31;;;;;;;19.73;10.90;;;18.40;99.90;;;;;;5034227;28;20273;-83
2022/04/27 11:46:02;;;;;;;16.05;10.02;;;18.40;99.90;;;;;;5033618;28;20194;-83
2022/04/27 11:48:35;;;;;;;16.40;10.25;;;18.40;99.90;;;;;;5032782;28;20281;-83
2022/04/27 11:51:07;;;;;;;18.42;11.07;;;18.50;99.90;;;;;;5032040;28;20244;-82
2022/04/27 11:53:47;;;;;;;20.17;12.48;;;18.50;99.90;;;;;;5033764;28;20313;-82
2022/04/27 11:56:19;;;;;;;22.35;11.85;;;18.40;99.90;;;;;;5032773;28;20249;-83
2022/04/27 11:58:50;;;;;;;20.70;11.50;;;18.40;99.90;;;;;;5019649;28;20206;-83
2022/04/27 12:01:59;;;;;;;15.30;10.23;;;18.40;99.90;;;;;;5027946;28;20612;-82
2022/04/27 12:04:32;;;;;;;14.38;10.75;;;18.50;99.90;;;;;;5032483;28;20197;-83
2022/04/27 12:07:03;;;;;;;24.63;11.45;;;18.40;99.90;;;;;;5031129;28;20198;-84
2022/04/27 12:09:34;;;;;;;15.98;10.20;;;18.50;99.90;;;;;;5027853;28;20261;-84
2022/04/27 12:12:11;;;;;;;20.88;10.88;;;18.40;99.90;;;;;;5032883;28;20202;-83
2022/04/27 12:14:42;;;;;;;18.00;10.65;;;18.50;99.90;;;;;;5030162;28;20240;-84
2022/04/27 12:17:46;;;;;;;20.60;11.00;;;18.40;99.90;;;;;;5025840;28;20194;-84
2022/04/27 12:20:39;;;;;;;18.35;11.05;;;18.40;99.90;;;;;;5031958;28;20201;-83
2022/04/27 12:23:13;;;;;;;16.40;10.25;;;18.40;99.90;;;;;;5027572;28;20202;-84
2022/04/27 12:25:45;;;;;;;18.38;10.50;;;18.40;99.90;;;;;;5030253;28;20282;-83
2022/04/27 12:28:17;;;;;;;17.77;9.93;;;18.40;99.90;;;;;;5030900;28;20283;-83
2022/04/27 12:30:52;;;;;;;17.88;11.63;;;18.40;99.90;;;;;;5031480;28;20213;-83
2022/04/27 12:33:24;;;;;;;15.13;10.50;;;18.40;99.90;;;;;;5025405;28;20222;-83
2022/04/27 12:39:00;;;;;;;14.30;8.75;;;18.40;99.90;;;;;;5030457;28;20210;-83
2022/04/27 12:41:37;;;;;;;17.13;9.75;;;18.40;99.90;;;;;;5030484;28;20218;-83
2022/04/27 12:44:08;;;;;;;19.05;10.10;;;18.40;99.90;;;;;;5028198;28;20544;-84
2022/04/27 12:46:39;;;;;;;14.73;9.98;;;18.40;99.90;;;;;;5026867;28;20198;-83
2022/04/27 12:49:11;;;;;;;17.85;10.48;;;18.40;99.90;;;;;;5027533;28;20248;-83
2022/04/27 12:51:44;;;;;;;17.90;9.68;;;18.40;99.90;;;;;;5029363;28;20237;-84
2022/04/27 12:54:20;;;;;;;19.85;10.25;;;18.40;99.90;;;;;;5031800;28;20241;-83
2022/04/27 12:57:01;;;;;;;16.08;9.70;;;18.40;99.90;;;;;;5032403;28;20267;-83
2022/04/27 12:59:33;;;;;;;16.80;9.95;;;18.40;99.90;;;;;;5029570;28;20202;-83
2022/04/27 13:02:06;;;;;;;17.48;10.07;;;18.40;99.90;;;;;;5029534;28;20197;-83
2022/04/27 13:04:37;;;;;;;18.08;10.55;;;18.40;99.90;;;;;;5026510;28;20670;-84
2022/04/27 13:07:11;;;;;;;19.95;10.68;;;18.40;99.90;;;;;;5026434;28;20195;-85
2022/04/27 13:12:37;;;;;;;19.15;9.93;;;18.40;99.90;;;;;;5016469;28;20201;-83
2022/04/27 13:15:09;;;;;;;19.48;10.02;;;18.30;99.90;;;;;;5027555;28;20300;-85
2022/04/27 13:17:42;;;;;;;18.60;10.35;;;18.30;99.90;;;;;;5031450;28;20209;-85
2022/04/27 13:20:44;;;;;;;15.70;10.40;;;18.30;99.90;;;;;;5034679;28;20201;-84
2022/04/27 13:23:17;;;;;;;15.85;10.38;;;18.30;99.90;;;;;;5033033;28;20201;-84
2022/04/27 13:25:53;;;;;;;19.80;10.48;;;18.30;99.90;;;;;;5036787;28;20191;-85
2022/04/27 13:28:24;;;;;;;13.02;9.30;;;18.20;99.90;;;;;;5035785;28;20575;-86
2022/04/27 13:30:56;;;;;;;16.55;10.45;;;18.20;99.90;;;;;;5035774;28;20187;-84
2022/04/27 13:33:30;;;;;;;14.90;9.63;;;18.30;99.90;;;;;;5033336;28;20230;-84
2022/04/27 13:36:02;;;;;;;13.95;9.45;;;18.30;99.90;;;;;;5032106;28;20221;-84